createdAt,value
2023-04-18T00:00:36.879Z,16.70
2023-04-18T00:03:04.841Z,16.73
2023-04-18T00:05:31.948Z,17.38
2023-04-18T00:07:58.904Z,17.13
2023-04-18T00:10:25.889Z,17.55
2023-04-18T00:12:52.707Z,18.35
2023-04-18T00:15:19.491Z,18.20
2023-04-18T00:17:46.298Z,18.10
2023-04-18T00:20:13.514Z,17.75
2023-04-18T00:22:45.181Z,18.23
2023-04-18T00:25:12.101Z,18.38
2023-04-18T00:27:39.457Z,19.25
2023-04-18T00:30:07.200Z,18.27
2023-04-18T00:32:37.658Z,18.70
2023-04-18T00:35:05.259Z,19.67
2023-04-18T00:37:32.091Z,19.65
2023-04-18T00:39:58.903Z,18.98
2023-04-18T00:42:27.892Z,18.90
2023-04-18T00:44:54.817Z,19.70
2023-04-18T00:47:21.706Z,19.33
2023-04-18T00:49:48.938Z,19.35
2023-04-18T00:52:16.814Z,19.08
2023-04-18T00:54:44.117Z,18.98
2023-04-18T00:57:12.222Z,19.15
2023-04-18T00:59:39.418Z,19.55
2023-04-18T01:02:08.051Z,19.90
2023-04-18T01:04:35.010Z,19.15
2023-04-18T01:07:02.326Z,20.30
2023-04-18T01:09:29.518Z,19.60
2023-04-18T01:11:56.778Z,20.67
2023-04-18T01:14:24.144Z,20.10
2023-04-18T01:16:51.086Z,20.45
2023-04-18T01:19:19.232Z,21.25
2023-04-18T01:21:46.176Z,20.27
2023-04-18T01:24:15.870Z,20.27
2023-04-18T01:26:44.981Z,19.58
2023-04-18T01:29:12.250Z,20.50
2023-04-18T01:31:40.637Z,20.40
2023-04-18T01:34:07.915Z,19.98
2023-04-18T01:36:37.364Z,20.92
2023-04-18T01:39:04.269Z,20.50
2023-04-18T01:41:33.100Z,20.75
2023-04-18T01:44:00.439Z,21.48
2023-04-18T01:46:27.913Z,20.60
2023-04-18T01:48:55.528Z,20.30
2023-04-18T01:51:22.436Z,20.92
2023-04-18T01:53:49.663Z,21.20
2023-04-18T01:56:16.637Z,21.50
2023-04-18T01:58:43.859Z,22.10
2023-04-18T02:01:12.596Z,21.75
2023-04-18T02:03:40.167Z,22.90
2023-04-18T02:06:07.497Z,22.80
2023-04-18T02:08:36.029Z,23.02
2023-04-18T02:11:06.061Z,22.15
2023-04-18T02:13:33.047Z,23.45
2023-04-18T02:16:00.009Z,24.00
2023-04-18T02:18:27.172Z,24.52
2023-04-18T02:20:54.136Z,24.80
2023-04-18T02:23:22.369Z,24.98
2023-04-18T02:25:49.459Z,24.88
2023-04-18T02:28:17.570Z,26.10
2023-04-18T02:30:44.407Z,25.20
2023-04-18T02:33:11.283Z,24.65
2023-04-18T02:35:38.809Z,26.20
2023-04-18T02:38:05.858Z,26.35
2023-04-18T02:40:32.760Z,26.55
2023-04-18T02:42:59.819Z,24.20
2023-04-18T02:45:26.751Z,25.77
2023-04-18T02:47:56.804Z,24.98
2023-04-18T02:50:24.933Z,24.67
2023-04-18T02:52:53.674Z,24.20
2023-04-18T02:55:22.662Z,24.88
2023-04-18T02:57:49.581Z,24.77
2023-04-18T03:00:36.446Z,25.52
2023-04-18T03:03:23.330Z,24.67
2023-04-18T03:06:10.195Z,25.55
2023-04-18T03:08:37.685Z,25.08
2023-04-18T03:11:05.244Z,25.60
2023-04-18T03:13:33.771Z,24.30
2023-04-18T03:16:02.584Z,23.48
2023-04-18T03:18:30.392Z,25.48
2023-04-18T03:20:59.836Z,23.92
2023-04-18T03:23:28.488Z,24.75
2023-04-18T03:25:55.647Z,25.85
2023-04-18T03:28:22.947Z,25.25
2023-04-18T03:30:50.888Z,26.63
2023-04-18T03:33:18.170Z,26.60
2023-04-18T03:35:48.049Z,25.65
2023-04-18T03:38:14.877Z,26.73
2023-04-18T03:40:44.419Z,27.33
2023-04-18T03:43:20.867Z,27.70
2023-04-18T03:45:48.159Z,27.83
2023-04-18T03:48:18.927Z,29.38
2023-04-18T03:50:47.593Z,27.58
2023-04-18T03:53:15.620Z,30.55
2023-04-18T03:55:42.586Z,30.88
2023-04-18T03:58:11.820Z,31.48
2023-04-18T04:00:39.915Z,32.30
2023-04-18T04:03:10.789Z,32.78
2023-04-18T04:05:37.736Z,33.80
2023-04-18T04:08:05.056Z,34.35
2023-04-18T04:10:33.911Z,33.70
2023-04-18T04:13:00.856Z,35.20
2023-04-18T04:15:29.312Z,36.00
2023-04-18T04:18:02.429Z,35.25
2023-04-18T04:20:30.291Z,36.22
2023-04-18T04:23:04.528Z,36.17
2023-04-18T04:25:34.168Z,36.88
2023-04-18T04:28:06.815Z,36.95
2023-04-18T04:30:41.777Z,36.28
2023-04-18T04:33:09.140Z,35.92
2023-04-18T04:35:36.845Z,37.17
2023-04-18T04:38:04.650Z,37.85
2023-04-18T04:40:43.528Z,36.53
2023-04-18T04:43:15.507Z,34.63
2023-04-18T04:45:44.784Z,33.67
2023-04-18T04:48:12.214Z,31.55
2023-04-18T04:50:41.128Z,30.45
2023-04-18T04:53:08.962Z,28.92
2023-04-18T04:55:36.199Z,28.35
2023-04-18T04:58:04.682Z,26.98
2023-04-18T05:00:43.277Z,24.88
2023-04-18T05:03:11.578Z,25.95
2023-04-18T05:05:38.705Z,23.13
2023-04-18T05:08:06.213Z,22.70
2023-04-18T05:10:33.215Z,21.63
2023-04-18T05:13:00.032Z,20.60
2023-04-18T05:15:26.947Z,19.02
2023-04-18T05:17:53.784Z,20.60
2023-04-18T05:20:20.915Z,19.75
2023-04-18T05:22:47.763Z,18.88
2023-04-18T05:25:14.686Z,18.77
2023-04-18T05:27:41.963Z,19.85
2023-04-18T05:30:09.318Z,18.75
2023-04-18T05:32:36.285Z,19.25
2023-04-18T05:35:03.249Z,16.83
2023-04-18T05:37:30.118Z,16.85
2023-04-18T05:39:59.308Z,17.95
2023-04-18T05:42:27.527Z,17.77
2023-04-18T05:44:54.439Z,15.25
2023-04-18T05:47:21.402Z,15.02
2023-04-18T05:49:48.402Z,15.77
2023-04-18T05:52:15.214Z,14.90
2023-04-18T05:54:42.140Z,14.20
2023-04-18T05:57:09.043Z,14.43
2023-04-18T05:59:35.908Z,14.13
2023-04-18T06:02:02.871Z,13.57
2023-04-18T06:04:29.877Z,13.38
2023-04-18T06:06:56.928Z,13.23
2023-04-18T06:09:23.733Z,12.18
2023-04-18T06:11:50.729Z,11.48
2023-04-18T06:14:17.640Z,11.77
2023-04-18T06:16:44.602Z,10.98
2023-04-18T06:19:11.573Z,9.25
2023-04-18T06:21:39.614Z,9.75
2023-04-18T06:24:06.962Z,9.10
2023-04-18T06:26:33.951Z,9.88
2023-04-18T06:29:01.236Z,9.07
2023-04-18T06:31:28.301Z,8.38
2023-04-18T06:33:55.169Z,8.27
2023-04-18T06:36:22.386Z,8.80
2023-04-18T06:38:49.411Z,8.60
2023-04-18T06:41:16.350Z,8.32
2023-04-18T06:43:55.751Z,8.20
2023-04-18T06:46:28.840Z,8.40
2023-04-18T06:48:55.758Z,8.60
2023-04-18T06:51:22.615Z,8.73
2023-04-18T06:53:52.842Z,8.23
2023-04-18T06:56:20.857Z,8.85
2023-04-18T06:58:48.272Z,9.65
2023-04-18T07:01:15.317Z,8.30
2023-04-18T07:03:42.280Z,7.78
2023-04-18T07:06:10.674Z,8.40
2023-04-18T07:08:37.780Z,8.57
2023-04-18T07:11:05.562Z,8.75
2023-04-18T07:13:32.452Z,8.38
2023-04-18T07:15:59.556Z,7.07
2023-04-18T07:18:36.714Z,7.43
2023-04-18T07:21:43.220Z,7.90
2023-04-18T07:23:54.332Z,7.05
2023-04-18T07:26:21.516Z,7.22
2023-04-18T07:28:49.201Z,6.60
2023-04-18T07:31:16.712Z,7.40
2023-04-18T07:33:43.918Z,7.88
2023-04-18T07:36:11.099Z,8.05
2023-04-18T07:38:38.079Z,7.20
2023-04-18T07:41:05.148Z,7.50
2023-04-18T07:43:31.992Z,7.07
2023-04-18T07:45:59.172Z,6.57
2023-04-18T07:48:27.264Z,6.35
2023-04-18T07:50:54.273Z,7.53
2023-04-18T07:53:21.320Z,7.38
2023-04-18T07:55:48.484Z,7.15
2023-04-18T07:58:15.640Z,7.35
2023-04-18T08:00:44.707Z,7.88
2023-04-18T08:03:13.242Z,7.07
2023-04-18T08:05:41.277Z,7.68
2023-04-18T08:08:09.627Z,8.52
2023-04-18T08:10:37.199Z,7.07
2023-04-18T08:13:04.635Z,8.10
2023-04-18T08:15:32.969Z,8.43
2023-04-18T08:18:01.316Z,7.13
2023-04-18T08:20:28.498Z,9.07
2023-04-18T08:25:25.533Z,8.95
2023-04-18T08:27:52.471Z,8.68
2023-04-18T08:30:19.479Z,9.05
2023-04-18T08:32:46.493Z,8.98
2023-04-18T08:35:13.554Z,8.55
2023-04-18T08:37:40.534Z,9.40
2023-04-18T08:40:08.250Z,8.77
2023-04-18T08:42:35.908Z,8.75
2023-04-18T08:45:05.009Z,7.50
2023-04-18T08:47:32.160Z,8.75
2023-04-18T08:49:59.083Z,9.32
2023-04-18T08:52:27.288Z,7.95
2023-04-18T08:54:54.245Z,9.10
2023-04-18T08:57:27.020Z,8.95
2023-04-18T08:59:55.359Z,9.13
2023-04-18T09:02:23.520Z,8.85
2023-04-18T09:04:53.727Z,9.18
2023-04-18T09:07:31.134Z,8.85
2023-04-18T09:09:58.314Z,8.57
2023-04-18T09:12:26.569Z,8.50
2023-04-18T09:15:10.879Z,9.77
2023-04-18T09:17:43.892Z,8.73
2023-04-18T09:20:12.194Z,8.52
2023-04-18T09:22:51.479Z,8.50
2023-04-18T09:25:45.454Z,8.57
2023-04-18T09:28:33.274Z,7.72
2023-04-18T09:31:13.517Z,8.50
2023-04-18T09:33:44.841Z,8.70
2023-04-18T09:36:27.425Z,8.20
2023-04-18T09:38:57.015Z,8.65
2023-04-18T09:41:24.674Z,8.60
2023-04-18T09:44:10.815Z,8.60
2023-04-18T09:46:39.510Z,8.57
2023-04-18T09:49:07.411Z,8.40
2023-04-18T09:51:36.792Z,8.43
2023-04-18T09:54:04.569Z,9.73
2023-04-18T09:56:33.004Z,8.30
2023-04-18T09:59:08.948Z,8.65
2023-04-18T10:01:36.699Z,8.15
2023-04-18T10:04:06.857Z,9.05
2023-04-18T10:06:35.048Z,9.27
2023-04-18T10:09:05.902Z,8.93
2023-04-18T10:11:33.159Z,8.77
2023-04-18T10:14:03.902Z,7.22
2023-04-18T10:16:33.398Z,9.13
2023-04-18T10:19:26.193Z,9.38
2023-04-18T10:21:54.622Z,8.90
2023-04-18T10:24:53.715Z,9.23
2023-04-18T10:28:00.973Z,9.63
2023-04-18T10:30:49.793Z,10.07
2023-04-18T10:33:41.034Z,9.45
2023-04-18T10:36:16.162Z,10.00
2023-04-18T10:38:49.006Z,9.93
2023-04-18T10:41:19.626Z,9.80
2023-04-18T10:44:11.476Z,9.73
2023-04-18T10:46:43.400Z,9.32
2023-04-18T10:51:43.315Z,10.57
2023-04-18T10:54:12.561Z,9.93
2023-04-18T10:56:39.782Z,10.35
2023-04-18T10:59:09.761Z,9.70
2023-04-18T11:04:13.361Z,10.40
2023-04-18T11:06:48.706Z,10.63
2023-04-18T11:09:15.991Z,10.00
2023-04-18T11:11:44.392Z,10.05
2023-04-18T11:14:11.548Z,10.88
2023-04-18T11:16:40.211Z,10.20
2023-04-18T11:19:27.339Z,10.52
2023-04-18T11:22:01.226Z,10.98
2023-04-18T11:24:28.190Z,11.02
2023-04-18T11:26:56.309Z,10.98
2023-04-18T11:29:23.646Z,11.02
2023-04-18T11:31:53.331Z,11.63
2023-04-18T11:34:22.120Z,11.93
2023-04-18T11:36:51.310Z,12.57
2023-04-18T11:39:18.922Z,12.20
2023-04-18T11:41:50.699Z,11.90
2023-04-18T11:46:46.188Z,12.07
2023-04-18T11:49:33.183Z,11.98
2023-04-18T11:52:01.526Z,11.88
2023-04-18T11:54:48.398Z,12.00
2023-04-18T11:57:26.369Z,12.75
2023-04-18T11:59:56.802Z,12.77
2023-04-18T12:02:25.909Z,11.45
2023-04-18T12:04:58.856Z,12.32
2023-04-18T12:07:40.959Z,13.02
2023-04-18T12:10:10.211Z,12.38
2023-04-18T12:12:37.269Z,12.13
2023-04-18T12:15:08.171Z,12.80
2023-04-18T12:17:37.161Z,13.05
2023-04-18T12:20:06.276Z,14.18
2023-04-18T12:22:46.310Z,12.10
2023-04-18T12:25:23.553Z,13.25
2023-04-18T12:28:04.837Z,12.52
2023-04-18T12:30:36.844Z,12.50
2023-04-18T12:33:04.942Z,11.75
2023-04-18T12:35:32.434Z,11.00
2023-04-18T12:38:00.919Z,12.25
2023-04-18T12:40:28.419Z,11.15
2023-04-18T12:42:55.842Z,12.02
2023-04-18T12:45:23.683Z,11.05
2023-04-18T12:47:51.853Z,11.43
2023-04-18T12:50:21.399Z,11.30
2023-04-18T12:52:49.114Z,10.98
2023-04-18T12:55:16.090Z,10.25
2023-04-18T12:57:43.587Z,9.65
2023-04-18T13:00:11.581Z,10.48
2023-04-18T13:02:41.020Z,9.90
2023-04-18T13:05:13.794Z,9.88
2023-04-18T13:07:42.603Z,10.23
2023-04-18T13:10:11.937Z,10.10
2023-04-18T13:12:40.002Z,10.30
2023-04-18T13:15:08.169Z,10.57
2023-04-18T13:17:38.809Z,9.60
2023-04-18T13:20:10.810Z,9.98
2023-04-18T13:22:38.344Z,10.90
2023-04-18T13:25:06.013Z,10.98
2023-04-18T13:27:32.946Z,10.70
2023-04-18T13:29:59.932Z,11.95
2023-04-18T13:32:27.219Z,11.13
2023-04-18T13:34:56.182Z,11.00
2023-04-18T13:37:23.704Z,11.93
2023-04-18T13:39:50.885Z,12.20
2023-04-18T13:45:00.479Z,10.82
2023-04-18T13:47:29.683Z,11.43
2023-04-18T13:49:57.855Z,11.98
2023-04-18T13:52:25.292Z,12.60
2023-04-18T13:54:52.300Z,12.88
2023-04-18T13:57:19.681Z,13.30
2023-04-18T13:59:46.907Z,13.25
2023-04-18T14:02:14.092Z,12.52
2023-04-18T14:04:41.825Z,12.73
2023-04-18T14:07:09.215Z,13.85
2023-04-18T14:09:36.901Z,13.57
2023-04-18T14:12:04.231Z,13.90
2023-04-18T14:14:31.180Z,13.73
2023-04-18T14:16:58.170Z,13.35
2023-04-18T14:19:25.256Z,13.35
2023-04-18T14:21:52.106Z,12.95
2023-04-18T14:24:19.084Z,13.35
2023-04-18T14:26:46.073Z,12.20
2023-04-18T14:29:14.454Z,10.80
2023-04-18T14:31:41.576Z,10.30
2023-04-18T14:34:09.864Z,10.70
2023-04-18T14:36:37.100Z,10.77
2023-04-18T14:39:04.751Z,9.15
2023-04-18T14:41:31.733Z,11.23
2023-04-18T14:43:59.138Z,11.30
2023-04-18T14:46:28.339Z,12.05
2023-04-18T14:48:55.476Z,10.90
2023-04-18T14:51:23.325Z,9.73
2023-04-18T14:53:50.202Z,11.13
2023-04-18T14:56:21.126Z,10.15
2023-04-18T14:58:48.536Z,8.73
2023-04-18T15:01:17.478Z,7.05
2023-04-18T15:03:45.600Z,7.97
2023-04-18T15:06:12.677Z,7.63
2023-04-18T15:08:39.894Z,8.05
2023-04-18T15:11:07.677Z,7.65
2023-04-18T15:13:34.641Z,6.43
2023-04-18T15:16:01.586Z,7.43
2023-04-18T15:18:28.940Z,7.85
2023-04-18T15:20:57.079Z,6.72
2023-04-18T15:23:24.094Z,7.70
2023-04-18T15:25:50.993Z,7.05
2023-04-18T15:28:18.730Z,8.02
2023-04-18T15:30:45.982Z,7.13
2023-04-18T15:33:13.686Z,7.63
2023-04-18T15:35:40.553Z,8.20
2023-04-18T15:38:07.718Z,5.90
2023-04-18T15:40:36.344Z,5.88
2023-04-18T15:43:04.158Z,5.75
2023-04-18T15:45:31.353Z,5.57
2023-04-18T15:47:58.805Z,5.10
2023-04-18T15:50:26.125Z,4.28
2023-04-18T15:52:53.050Z,5.55
2023-04-18T15:55:19.871Z,5.45
2023-04-18T15:57:47.020Z,4.82
2023-04-18T16:00:17.502Z,3.88
2023-04-18T16:02:45.104Z,4.68
2023-04-18T16:05:13.096Z,4.65
2023-04-18T16:07:40.574Z,3.88
2023-04-18T16:10:12.843Z,4.28
2023-04-18T16:12:40.145Z,4.05
2023-04-18T16:15:10.573Z,4.13
2023-04-18T16:17:38.146Z,4.00
2023-04-18T16:20:06.510Z,4.00
2023-04-18T16:22:33.563Z,4.38
2023-04-18T16:25:00.542Z,5.05
2023-04-18T16:27:27.463Z,4.53
2023-04-18T16:29:54.405Z,4.00
2023-04-18T16:32:21.381Z,3.30
2023-04-18T16:34:48.574Z,3.00
2023-04-18T16:37:15.966Z,3.67
2023-04-18T16:39:42.924Z,3.35
2023-04-18T16:42:09.680Z,3.75
2023-04-18T16:44:36.480Z,3.80
2023-04-18T16:47:05.126Z,3.70
2023-04-18T16:49:32.085Z,4.18
2023-04-18T16:51:58.940Z,4.70
2023-04-18T16:54:25.905Z,5.10
2023-04-18T16:56:52.817Z,4.97
2023-04-18T16:59:19.622Z,5.20
2023-04-18T17:01:46.497Z,5.65
2023-04-18T17:04:14.872Z,5.30
2023-04-18T17:06:45.023Z,5.32
2023-04-18T17:09:13.983Z,5.70
2023-04-18T17:11:41.780Z,5.50
2023-04-18T17:14:09.053Z,5.05
2023-04-18T17:16:40.039Z,5.90
2023-04-18T17:19:07.443Z,6.40
2023-04-18T17:21:35.062Z,5.72
2023-04-18T17:24:03.916Z,6.90
2023-04-18T17:26:31.208Z,5.60
2023-04-18T17:28:58.139Z,5.32
2023-04-18T17:31:25.067Z,5.53
2023-04-18T17:33:51.936Z,5.30
2023-04-18T17:36:18.820Z,5.93
2023-04-18T17:38:49.041Z,5.03
2023-04-18T17:41:18.846Z,5.53
2023-04-18T17:43:47.639Z,5.80
2023-04-18T17:46:16.198Z,5.57
2023-04-18T17:48:49.449Z,4.68
2023-04-18T17:51:22.032Z,5.38
2023-04-18T17:53:51.685Z,5.50
2023-04-18T17:56:19.388Z,4.43
2023-04-18T17:58:48.059Z,4.63
2023-04-18T18:01:16.715Z,4.70
2023-04-18T18:03:44.923Z,4.68
2023-04-18T18:06:13.095Z,4.60
2023-04-18T18:08:42.655Z,4.00
2023-04-18T18:11:13.938Z,4.28
2023-04-18T18:13:42.687Z,4.45
2023-04-18T18:16:10.625Z,4.28
2023-04-18T18:18:40.867Z,4.75
2023-04-18T18:21:08.092Z,4.75
2023-04-18T18:23:36.842Z,4.25
2023-04-18T18:26:04.969Z,4.57
2023-04-18T18:28:32.254Z,4.32
2023-04-18T18:31:00.089Z,4.22
2023-04-18T18:33:28.513Z,4.82
2023-04-18T18:36:01.473Z,4.15
2023-04-18T18:38:34.512Z,4.22
2023-04-18T18:41:05.774Z,4.55
2023-04-18T18:43:33.644Z,4.35
2023-04-18T18:46:02.097Z,4.60
2023-04-18T18:48:29.311Z,4.45
2023-04-18T18:50:58.637Z,4.60
2023-04-18T18:53:25.978Z,4.53
2023-04-18T18:55:53.330Z,4.70
2023-04-18T18:58:24.779Z,4.50
2023-04-18T19:00:51.883Z,4.82
2023-04-18T19:03:21.247Z,4.72
2023-04-18T19:05:48.211Z,4.57
2023-04-18T19:08:15.677Z,4.78
2023-04-18T19:10:43.428Z,4.70
2023-04-18T19:13:10.485Z,5.55
2023-04-18T19:15:37.371Z,5.07
2023-04-18T19:18:04.473Z,5.30
2023-04-18T19:20:31.313Z,5.13
2023-04-18T19:22:58.148Z,5.93
2023-04-18T19:25:25.051Z,5.38
2023-04-18T19:27:51.992Z,4.72
2023-04-18T19:30:18.913Z,4.97
2023-04-18T19:32:50.592Z,4.43
2023-04-18T19:35:26.068Z,4.80
2023-04-18T19:38:02.735Z,5.00
2023-04-18T19:40:32.422Z,4.78
2023-04-18T19:43:08.934Z,4.55
2023-04-18T19:45:39.054Z,4.45
2023-04-18T19:48:09.568Z,4.27
2023-04-18T19:50:43.895Z,4.85
2023-04-18T19:53:17.838Z,4.43
2023-04-18T19:55:49.165Z,4.38
2023-04-18T19:58:46.268Z,4.53
2023-04-18T20:01:22.461Z,5.35
2023-04-18T20:03:50.291Z,4.90
2023-04-18T20:06:23.792Z,5.18
2023-04-18T20:08:57.697Z,5.00
2023-04-18T20:11:25.868Z,4.93
2023-04-18T20:13:54.995Z,4.57
2023-04-18T20:16:22.280Z,5.00
2023-04-18T20:18:50.118Z,4.63
2023-04-18T20:21:17.049Z,5.00
2023-04-18T20:23:45.307Z,5.30
2023-04-18T20:26:12.218Z,5.15
2023-04-18T20:28:39.105Z,5.55
2023-04-18T20:31:06.161Z,4.78
2023-04-18T20:33:33.192Z,4.82
2023-04-18T20:36:00.119Z,4.63
2023-04-18T20:38:29.619Z,5.57
2023-04-18T20:40:58.945Z,4.80
2023-04-18T20:43:26.077Z,4.63
2023-04-18T20:45:53.961Z,4.55
2023-04-18T20:48:21.289Z,5.05
2023-04-18T20:50:51.657Z,5.32
2023-04-18T20:53:21.079Z,4.65
2023-04-18T20:55:48.741Z,4.80
2023-04-18T20:58:15.899Z,4.60
2023-04-18T21:00:43.762Z,4.03
2023-04-18T21:03:13.357Z,5.07
2023-04-18T21:05:40.314Z,4.53
2023-04-18T21:08:07.255Z,4.07
2023-04-18T21:10:34.450Z,4.63
2023-04-18T21:13:01.237Z,4.88
2023-04-18T21:15:28.145Z,4.97
2023-04-18T21:17:55.904Z,4.38
2023-04-18T21:20:22.965Z,3.53
2023-04-18T21:22:49.772Z,3.97
2023-04-18T21:27:43.750Z,4.22
2023-04-18T21:30:11.072Z,4.10
2023-04-18T21:32:37.906Z,3.88
2023-04-18T21:35:05.095Z,4.22
2023-04-18T21:37:32.237Z,3.92
2023-04-18T21:40:00.362Z,3.85
2023-04-18T21:42:27.221Z,4.03
2023-04-18T21:44:54.888Z,3.65
2023-04-18T21:47:22.235Z,3.65
2023-04-18T21:49:49.371Z,3.30
2023-04-18T21:52:16.145Z,3.50
2023-04-18T21:54:43.017Z,4.15
2023-04-18T21:57:09.853Z,3.25
2023-04-18T21:59:36.673Z,3.60
2023-04-18T22:02:03.611Z,4.03
2023-04-18T22:04:30.493Z,3.45
2023-04-18T22:06:57.564Z,3.80
2023-04-18T22:09:24.794Z,4.07
2023-04-18T22:11:51.798Z,4.22
2023-04-18T22:14:20.106Z,4.22
2023-04-18T22:16:46.929Z,4.55
2023-04-18T22:19:14.198Z,4.13
2023-04-18T22:21:41.271Z,4.25
2023-04-18T22:24:08.927Z,4.00
2023-04-18T22:26:35.970Z,3.70
2023-04-18T22:29:02.838Z,4.15
2023-04-18T22:31:29.791Z,3.70
2023-04-18T22:33:56.730Z,4.22
2023-04-18T22:36:23.514Z,3.78
2023-04-18T22:38:50.417Z,3.80
2023-04-18T22:41:17.227Z,3.60
2023-04-18T22:43:44.021Z,3.40
2023-04-18T22:46:10.901Z,3.13
2023-04-18T22:48:38.534Z,3.83
2023-04-18T22:51:05.514Z,3.92
2023-04-18T22:53:32.841Z,3.60
2023-04-18T22:55:59.658Z,3.90
2023-04-18T22:58:26.532Z,4.05
2023-04-18T23:00:53.335Z,3.15
2023-04-18T23:03:20.441Z,3.25
2023-04-18T23:05:47.319Z,3.80
2023-04-18T23:08:14.199Z,3.88
2023-04-18T23:10:41.033Z,3.63
2023-04-18T23:13:07.942Z,4.05
2023-04-18T23:15:34.795Z,2.55
2023-04-18T23:18:01.851Z,3.70
2023-04-18T23:20:28.661Z,3.80
2023-04-18T23:22:56.041Z,3.33
2023-04-18T23:25:23.046Z,3.22
2023-04-18T23:27:49.943Z,3.58
2023-04-18T23:30:17.250Z,3.50
2023-04-18T23:32:44.149Z,3.70
2023-04-18T23:35:11.588Z,2.38
2023-04-18T23:37:38.365Z,3.33
2023-04-18T23:40:06.858Z,3.08
2023-04-18T23:42:37.150Z,3.47
2023-04-18T23:45:05.919Z,2.85
2023-04-18T23:47:32.913Z,2.90
2023-04-18T23:49:59.871Z,2.80
2023-04-18T23:52:26.791Z,3.47
2023-04-18T23:54:53.657Z,3.65
2023-04-18T23:57:20.600Z,3.35
2023-04-18T23:59:47.492Z,3.53
